createdAt,value
2022-11-06T00:00:53.603Z,2.95
2022-11-06T00:03:24.058Z,3.83
2022-11-06T00:06:10.824Z,3.03
2022-11-06T00:08:42.481Z,4.28
2022-11-06T00:11:13.063Z,3.33
2022-11-06T00:18:44.380Z,3.67
2022-11-06T00:21:16.126Z,2.97
2022-11-06T00:23:47.000Z,3.30
2022-11-06T00:26:18.150Z,5.53
2022-11-06T00:28:50.766Z,2.63
2022-11-06T00:31:21.837Z,3.05
2022-11-06T00:33:52.439Z,3.35
2022-11-06T00:36:24.030Z,4.47
2022-11-06T00:38:55.008Z,2.75
2022-11-06T00:41:25.245Z,3.65
2022-11-06T00:46:27.182Z,2.30
2022-11-06T00:48:57.875Z,3.60
2022-11-06T00:51:30.004Z,2.38
2022-11-06T00:54:02.707Z,3.03
2022-11-06T00:56:33.219Z,3.17
2022-11-06T00:59:07.676Z,3.28
2022-11-06T01:01:38.614Z,2.55
2022-11-06T01:04:12.370Z,3.28
2022-11-06T01:06:44.584Z,2.90
2022-11-06T01:09:16.225Z,5.20
2022-11-06T01:14:40.240Z,2.90
2022-11-06T01:17:09.731Z,2.50
2022-11-06T01:19:40.254Z,2.58
2022-11-06T01:22:09.557Z,2.28
2022-11-06T01:24:39.734Z,2.97
2022-11-06T01:30:00.994Z,3.03
2022-11-06T01:35:00.024Z,2.45
2022-11-06T01:37:29.300Z,2.15
2022-11-06T01:39:58.910Z,2.38
2022-11-06T01:42:28.380Z,2.83
2022-11-06T01:45:26.068Z,3.28
2022-11-06T01:47:55.405Z,2.42
2022-11-06T01:50:25.920Z,2.20
2022-11-06T01:52:55.311Z,3.03
2022-11-06T01:55:31.052Z,3.55
2022-11-06T01:58:04.996Z,2.92
2022-11-06T02:00:36.813Z,2.92
2022-11-06T02:03:06.624Z,2.65
2022-11-06T02:05:36.978Z,2.92
2022-11-06T02:08:07.628Z,3.13
2022-11-06T02:10:37.911Z,3.33
2022-11-06T02:13:17.165Z,2.72
2022-11-06T02:15:53.603Z,2.92
2022-11-06T02:18:37.397Z,2.65
2022-11-06T02:21:27.919Z,3.17
2022-11-06T02:24:20.587Z,3.08
2022-11-06T02:27:11.744Z,2.70
2022-11-06T02:29:49.653Z,2.58
2022-11-06T02:32:24.506Z,2.90
2022-11-06T02:34:56.553Z,2.13
2022-11-06T02:37:30.940Z,2.33
2022-11-06T02:40:04.373Z,2.50
2022-11-06T02:42:39.632Z,2.92
2022-11-06T02:45:12.838Z,4.43
2022-11-06T02:47:44.328Z,3.42
2022-11-06T02:50:17.724Z,2.65
2022-11-06T02:52:53.162Z,2.83
2022-11-06T02:55:27.462Z,3.85
2022-11-06T02:58:02.674Z,3.55
2022-11-06T03:00:33.506Z,3.55
2022-11-06T03:03:08.112Z,2.85
2022-11-06T03:05:41.018Z,3.10
2022-11-06T03:08:16.562Z,2.83
2022-11-06T03:10:54.126Z,3.22
2022-11-06T03:13:31.417Z,3.20
2022-11-06T03:16:05.917Z,3.47
2022-11-06T03:18:41.699Z,3.05
2022-11-06T03:21:21.458Z,3.05
2022-11-06T03:23:56.140Z,3.85
2022-11-06T03:26:34.400Z,3.05
2022-11-06T03:29:13.639Z,3.75
2022-11-06T03:31:51.095Z,3.80
2022-11-06T03:34:26.644Z,3.53
2022-11-06T03:37:01.477Z,4.13
2022-11-06T03:39:36.936Z,3.60
2022-11-06T03:42:09.770Z,4.95
2022-11-06T03:44:45.164Z,3.90
2022-11-06T03:47:22.213Z,3.85
2022-11-06T03:49:56.372Z,4.63
2022-11-06T03:52:32.618Z,4.45
2022-11-06T03:55:07.577Z,3.72
2022-11-06T03:57:42.092Z,4.40
2022-11-06T04:00:15.271Z,3.97
2022-11-06T04:02:48.387Z,4.43
2022-11-06T04:05:22.931Z,4.95
2022-11-06T04:08:13.021Z,3.75
2022-11-06T04:11:04.554Z,5.63
2022-11-06T04:13:54.680Z,4.75
2022-11-06T04:16:26.758Z,4.85
2022-11-06T04:18:56.002Z,5.22
2022-11-06T04:21:33.393Z,4.57
2022-11-06T04:24:33.218Z,4.35
2022-11-06T04:27:14.961Z,6.10
2022-11-06T04:29:53.679Z,4.57
2022-11-06T04:32:31.235Z,4.68
2022-11-06T04:35:07.565Z,4.88
2022-11-06T04:37:45.164Z,4.80
2022-11-06T04:40:24.057Z,4.60
2022-11-06T04:43:00.024Z,4.53
2022-11-06T04:45:33.494Z,4.60
2022-11-06T04:48:06.388Z,4.60
2022-11-06T04:50:41.239Z,4.60
2022-11-06T04:53:12.284Z,4.82
2022-11-06T04:55:48.539Z,4.97
2022-11-06T04:58:18.492Z,4.55
2022-11-06T05:00:49.260Z,4.97
2022-11-06T05:03:21.006Z,5.13
2022-11-06T05:08:21.807Z,5.53
2022-11-06T05:10:51.062Z,5.60
2022-11-06T05:13:20.672Z,5.38
2022-11-06T05:15:49.911Z,4.90
2022-11-06T05:18:21.324Z,5.03
2022-11-06T05:21:10.830Z,5.47
2022-11-06T05:23:39.745Z,5.87
2022-11-06T05:26:10.022Z,4.85
2022-11-06T05:28:39.819Z,5.63
2022-11-06T05:31:09.307Z,5.35
2022-11-06T05:33:40.835Z,5.63
2022-11-06T05:36:10.995Z,5.97
2022-11-06T05:38:40.841Z,6.10
2022-11-06T05:41:10.573Z,5.72
2022-11-06T05:43:40.351Z,6.53
2022-11-06T05:46:29.629Z,6.22
2022-11-06T05:49:00.919Z,6.13
2022-11-06T05:51:30.343Z,6.90
2022-11-06T05:54:00.147Z,6.97
2022-11-06T05:56:29.398Z,6.28
2022-11-06T05:58:59.531Z,6.72
2022-11-06T06:01:29.064Z,8.15
2022-11-06T06:04:00.504Z,6.70
2022-11-06T06:06:30.225Z,7.80
2022-11-06T06:09:00.163Z,7.75
2022-11-06T06:11:29.463Z,7.43
2022-11-06T06:13:59.474Z,8.57
2022-11-06T06:16:28.789Z,8.18
2022-11-06T06:18:59.826Z,8.82
2022-11-06T06:21:29.070Z,8.38
2022-11-06T06:23:58.840Z,9.57
2022-11-06T06:26:28.068Z,8.80
2022-11-06T06:28:57.888Z,9.52
2022-11-06T06:31:27.338Z,8.38
2022-11-06T06:33:57.133Z,9.68
2022-11-06T06:36:27.951Z,9.30
2022-11-06T06:38:57.776Z,8.85
2022-11-06T06:41:27.065Z,9.25
2022-11-06T06:43:56.679Z,8.38
2022-11-06T06:46:26.259Z,9.00
2022-11-06T06:48:56.233Z,8.52
2022-11-06T06:51:27.028Z,7.85
2022-11-06T06:53:57.308Z,7.78
2022-11-06T06:56:26.650Z,7.95
2022-11-06T06:58:56.694Z,8.68
2022-11-06T07:01:26.353Z,8.00
2022-11-06T07:03:59.985Z,8.82
2022-11-06T07:06:34.648Z,6.75
2022-11-06T07:09:04.494Z,7.53
2022-11-06T07:11:33.749Z,8.30
2022-11-06T07:14:03.747Z,8.88
2022-11-06T07:16:33.023Z,7.22
2022-11-06T07:19:03.319Z,6.88
2022-11-06T07:21:34.109Z,7.82
2022-11-06T07:24:04.072Z,7.97
2022-11-06T07:26:33.351Z,6.35
2022-11-06T07:29:03.479Z,7.80
2022-11-06T07:31:33.067Z,6.53
2022-11-06T07:34:03.056Z,7.05
2022-11-06T07:36:36.389Z,7.75
2022-11-06T07:39:06.353Z,8.65
2022-11-06T07:41:35.872Z,7.93
2022-11-06T07:44:05.606Z,8.75
2022-11-06T07:46:34.939Z,9.00
2022-11-06T07:49:04.632Z,8.15
2022-11-06T07:51:35.463Z,8.70
2022-11-06T07:54:05.562Z,8.15
2022-11-06T07:56:35.129Z,6.57
2022-11-06T07:59:05.606Z,5.47
2022-11-06T08:01:34.988Z,5.18
2022-11-06T08:04:05.306Z,5.22
2022-11-06T08:06:36.038Z,5.68
2022-11-06T08:09:08.097Z,4.82
2022-11-06T08:11:37.495Z,5.18
2022-11-06T08:14:07.264Z,4.07
2022-11-06T08:16:36.499Z,4.30
2022-11-06T08:19:06.255Z,4.47
2022-11-06T08:21:37.110Z,5.38
2022-11-06T08:24:07.935Z,4.97
2022-11-06T08:26:37.214Z,5.80
2022-11-06T08:29:07.396Z,6.23
2022-11-06T08:31:37.070Z,6.13
2022-11-06T08:34:07.014Z,5.75
2022-11-06T08:36:40.807Z,5.13
2022-11-06T08:39:10.792Z,5.95
2022-11-06T08:41:40.822Z,5.30
2022-11-06T08:44:10.796Z,7.18
2022-11-06T08:46:40.268Z,5.38
2022-11-06T08:49:09.895Z,4.93
2022-11-06T08:51:40.626Z,5.63
2022-11-06T08:54:12.079Z,8.10
2022-11-06T08:56:41.529Z,5.32
2022-11-06T08:59:11.519Z,5.28
2022-11-06T09:01:40.888Z,4.50
2022-11-06T09:04:11.033Z,4.95
2022-11-06T09:06:41.768Z,5.20
2022-11-06T09:09:11.756Z,4.80
2022-11-06T09:11:41.207Z,5.47
2022-11-06T09:14:11.619Z,5.53
2022-11-06T09:16:41.046Z,5.15
2022-11-06T09:19:11.025Z,5.13
2022-11-06T09:21:42.201Z,4.95
2022-11-06T09:24:12.716Z,4.57
2022-11-06T09:26:42.135Z,5.10
2022-11-06T09:29:12.428Z,4.45
2022-11-06T09:31:43.354Z,4.30
2022-11-06T09:34:13.377Z,4.03
2022-11-06T09:36:44.218Z,3.65
2022-11-06T09:39:14.771Z,3.42
2022-11-06T09:41:53.375Z,3.45
2022-11-06T09:44:35.898Z,3.92
2022-11-06T09:47:10.999Z,2.88
2022-11-06T09:49:48.347Z,3.30
2022-11-06T09:52:27.218Z,3.28
2022-11-06T09:55:02.029Z,3.13
2022-11-06T09:57:38.404Z,3.25
2022-11-06T10:00:13.843Z,2.58
2022-11-06T10:02:48.863Z,3.13
2022-11-06T10:05:26.136Z,2.83
2022-11-06T10:07:58.674Z,2.80
2022-11-06T10:10:34.544Z,2.75
2022-11-06T10:13:25.943Z,2.75
2022-11-06T10:16:01.619Z,3.17
2022-11-06T10:18:41.175Z,4.22
2022-11-06T10:21:13.722Z,3.90
2022-11-06T10:23:51.793Z,3.33
2022-11-06T10:26:28.698Z,4.55
2022-11-06T10:29:18.154Z,3.42
2022-11-06T10:31:58.759Z,3.38
2022-11-06T10:34:34.202Z,3.08
2022-11-06T10:37:10.297Z,3.00
2022-11-06T10:39:41.567Z,2.25
2022-11-06T10:42:17.706Z,2.90
2022-11-06T10:44:51.531Z,2.80
2022-11-06T10:47:23.014Z,3.13
2022-11-06T10:49:55.526Z,2.92
2022-11-06T10:52:38.038Z,2.40
2022-11-06T10:55:49.225Z,2.35
2022-11-06T10:58:22.797Z,2.83
2022-11-06T11:00:53.805Z,3.22
2022-11-06T11:03:28.293Z,2.38
2022-11-06T11:05:57.928Z,2.45
2022-11-06T11:08:40.597Z,2.33
2022-11-06T11:11:24.140Z,2.67
2022-11-06T11:14:15.426Z,2.53
2022-11-06T11:16:46.830Z,2.17
2022-11-06T11:19:25.041Z,2.58
2022-11-06T11:21:56.127Z,2.65
2022-11-06T11:24:26.738Z,2.00
2022-11-06T11:26:58.683Z,2.00
2022-11-06T11:29:33.243Z,2.58
2022-11-06T11:32:07.957Z,2.45
2022-11-06T11:34:51.414Z,2.80
2022-11-06T11:37:27.445Z,2.47
2022-11-06T11:39:58.199Z,3.20
2022-11-06T11:42:30.200Z,2.20
2022-11-06T11:45:25.685Z,2.90
2022-11-06T11:48:10.625Z,2.60
2022-11-06T11:50:41.416Z,2.65
2022-11-06T11:53:16.430Z,2.85
2022-11-06T11:55:50.908Z,2.78
2022-11-06T11:58:23.917Z,2.55
2022-11-06T12:00:59.588Z,2.58
2022-11-06T12:03:33.000Z,2.50
2022-11-06T12:06:11.846Z,2.83
2022-11-06T12:08:46.531Z,3.42
2022-11-06T12:11:21.273Z,2.42
2022-11-06T12:14:18.723Z,2.88
2022-11-06T12:16:52.540Z,3.35
2022-11-06T12:19:23.724Z,2.58
2022-11-06T12:21:56.923Z,2.90
2022-11-06T12:24:32.343Z,3.17
2022-11-06T12:27:11.145Z,3.38
2022-11-06T12:29:43.075Z,3.08
2022-11-06T12:32:24.033Z,3.30
2022-11-06T12:35:01.215Z,2.80
2022-11-06T12:37:47.809Z,3.05
2022-11-06T12:40:25.398Z,2.63
2022-11-06T12:43:13.681Z,3.72
2022-11-06T12:46:04.566Z,3.25
2022-11-06T12:48:58.728Z,2.85
2022-11-06T12:51:35.584Z,2.60
2022-11-06T12:54:20.281Z,2.50
2022-11-06T12:56:56.703Z,2.72
2022-11-06T12:59:44.539Z,2.40
2022-11-06T13:02:25.168Z,2.65
2022-11-06T13:05:03.599Z,2.85
2022-11-06T13:07:58.084Z,2.78
2022-11-06T13:10:37.403Z,2.60
2022-11-06T13:13:22.733Z,2.78
2022-11-06T13:16:02.111Z,3.00
2022-11-06T13:18:35.477Z,3.45
2022-11-06T13:21:12.579Z,2.67
2022-11-06T13:23:45.652Z,3.42
2022-11-06T13:26:23.278Z,3.00
2022-11-06T13:28:57.346Z,3.00
2022-11-06T13:31:36.662Z,3.13
2022-11-06T13:34:08.395Z,2.70
2022-11-06T13:36:40.294Z,3.17
2022-11-06T13:39:17.568Z,3.67
2022-11-06T13:41:47.691Z,3.55
2022-11-06T13:44:17.831Z,3.63
2022-11-06T13:49:30.478Z,4.18
2022-11-06T13:52:03.984Z,3.75
2022-11-06T13:54:50.363Z,3.70
2022-11-06T13:57:53.744Z,3.78
2022-11-06T14:00:25.108Z,4.78
2022-11-06T14:03:34.780Z,4.38
2022-11-06T14:06:05.999Z,3.22
2022-11-06T14:08:43.652Z,3.47
2022-11-06T14:11:15.859Z,3.65
2022-11-06T14:14:00.325Z,4.00
2022-11-06T14:16:32.493Z,4.55
2022-11-06T14:19:10.882Z,7.10
2022-11-06T14:21:50.302Z,6.07
2022-11-06T14:24:42.500Z,5.32
2022-11-06T14:27:14.387Z,5.85
2022-11-06T14:30:08.071Z,6.03
2022-11-06T14:32:49.286Z,5.60
2022-11-06T14:35:55.120Z,5.30
2022-11-06T14:38:38.340Z,4.28
2022-11-06T14:41:48.441Z,3.47
2022-11-06T14:44:32.907Z,3.55
2022-11-06T14:47:06.727Z,4.28
2022-11-06T14:49:42.384Z,3.40
2022-11-06T14:52:14.834Z,3.88
2022-11-06T14:54:53.958Z,4.57
2022-11-06T14:57:45.447Z,3.40
2022-11-06T15:00:37.811Z,3.38
2022-11-06T15:03:18.634Z,3.58
2022-11-06T15:05:52.746Z,4.18
2022-11-06T15:09:03.224Z,4.38
2022-11-06T15:12:09.137Z,4.40
2022-11-06T15:14:58.802Z,3.70
2022-11-06T15:17:34.330Z,3.70
2022-11-06T15:20:16.266Z,4.00
2022-11-06T15:22:50.739Z,4.07
2022-11-06T15:25:24.409Z,4.13
2022-11-06T15:28:06.074Z,4.30
2022-11-06T15:30:44.773Z,9.90
2022-11-06T15:33:21.559Z,4.65
2022-11-06T15:35:52.223Z,5.15
2022-11-06T15:38:24.676Z,5.63
2022-11-06T15:40:56.515Z,6.43
2022-11-06T15:43:31.465Z,7.68
2022-11-06T15:46:18.678Z,7.57
2022-11-06T15:48:50.883Z,9.10
2022-11-06T15:51:23.496Z,10.02
2022-11-06T15:53:53.422Z,9.38
2022-11-06T15:56:27.766Z,7.57
2022-11-06T15:59:09.217Z,6.68
2022-11-06T16:01:39.344Z,5.65
2022-11-06T16:04:16.497Z,6.40
2022-11-06T16:06:47.900Z,6.78
2022-11-06T16:11:52.025Z,7.32
2022-11-06T16:14:22.821Z,7.95
2022-11-06T16:16:54.717Z,7.35
2022-11-06T16:19:36.116Z,7.07
2022-11-06T16:22:08.428Z,7.25
2022-11-06T16:24:43.855Z,7.88
2022-11-06T16:27:14.819Z,9.20
2022-11-06T16:29:49.540Z,10.70
2022-11-06T16:32:22.137Z,11.43
2022-11-06T16:34:52.956Z,9.20
2022-11-06T16:37:40.511Z,10.32
2022-11-06T16:40:46.176Z,9.38
2022-11-06T16:43:17.524Z,9.38
2022-11-06T16:45:58.617Z,8.82
2022-11-06T16:48:38.444Z,9.93
2022-11-06T16:51:14.275Z,10.27
2022-11-06T16:53:56.474Z,11.05
2022-11-06T16:56:28.509Z,12.20
2022-11-06T16:59:03.091Z,14.27
2022-11-06T17:01:40.350Z,14.75
2022-11-06T17:04:21.384Z,15.60
2022-11-06T17:06:52.908Z,16.10
2022-11-06T17:09:31.084Z,17.10
2022-11-06T17:12:01.461Z,14.85
2022-11-06T17:14:33.247Z,11.90
2022-11-06T17:17:03.607Z,14.32
2022-11-06T17:19:34.165Z,10.70
2022-11-06T17:22:07.156Z,10.77
2022-11-06T17:24:37.923Z,10.70
2022-11-06T17:27:08.085Z,10.32
2022-11-06T17:29:39.081Z,9.23
2022-11-06T17:32:08.390Z,11.07
2022-11-06T17:34:38.086Z,8.85
2022-11-06T17:37:11.764Z,10.35
2022-11-06T17:39:41.527Z,9.65
2022-11-06T17:42:11.063Z,9.43
2022-11-06T17:44:43.159Z,9.48
2022-11-06T17:47:12.408Z,9.18
2022-11-06T17:49:42.456Z,9.38
2022-11-06T17:52:13.244Z,10.18
2022-11-06T17:54:43.204Z,9.48
2022-11-06T17:57:12.671Z,10.02
2022-11-06T17:59:43.057Z,9.50
2022-11-06T18:02:18.859Z,10.43
2022-11-06T18:04:56.261Z,10.75
2022-11-06T18:07:26.997Z,10.90
2022-11-06T18:09:56.762Z,11.13
2022-11-06T18:12:28.001Z,9.88
2022-11-06T18:14:58.115Z,10.45
2022-11-06T18:17:27.367Z,10.75
2022-11-06T18:19:57.613Z,11.23
2022-11-06T18:22:28.315Z,10.95
2022-11-06T18:24:58.824Z,10.38
2022-11-06T18:27:28.256Z,10.65
2022-11-06T18:29:58.304Z,11.80
2022-11-06T18:32:27.568Z,11.98
2022-11-06T18:34:57.699Z,11.88
2022-11-06T18:37:28.551Z,11.43
2022-11-06T18:39:58.922Z,12.18
2022-11-06T18:42:28.430Z,12.25
2022-11-06T18:44:58.576Z,12.40
2022-11-06T18:47:27.809Z,11.45
2022-11-06T18:49:57.606Z,12.02
2022-11-06T18:52:55.809Z,13.20
2022-11-06T18:55:18.680Z,12.75
2022-11-06T18:57:48.151Z,11.50
2022-11-06T19:00:18.959Z,11.70
2022-11-06T19:02:48.439Z,11.23
2022-11-06T19:05:18.771Z,12.75
2022-11-06T19:07:52.817Z,11.90
2022-11-06T19:10:23.768Z,12.20
2022-11-06T19:12:53.180Z,11.65
2022-11-06T19:15:23.855Z,11.63
2022-11-06T19:17:54.945Z,11.82
2022-11-06T19:20:24.966Z,10.88
2022-11-06T19:22:56.421Z,11.63
2022-11-06T19:25:26.904Z,11.98
2022-11-06T19:27:56.865Z,11.80
2022-11-06T19:30:27.444Z,12.55
2022-11-06T19:32:56.864Z,11.55
2022-11-06T19:35:27.372Z,12.10
2022-11-06T19:37:58.089Z,11.25
2022-11-06T19:40:29.175Z,14.57
2022-11-06T19:43:00.051Z,12.30
2022-11-06T19:45:29.639Z,13.05
2022-11-06T19:48:01.506Z,12.23
2022-11-06T19:50:58.007Z,11.77
2022-11-06T19:53:24.749Z,14.10
2022-11-06T19:55:54.832Z,12.23
2022-11-06T19:58:24.116Z,10.77
2022-11-06T20:00:54.336Z,11.83
2022-11-06T20:03:24.296Z,11.90
2022-11-06T20:05:56.381Z,14.98
2022-11-06T20:08:27.125Z,11.50
2022-11-06T20:11:04.170Z,11.85
2022-11-06T20:13:36.703Z,11.55
2022-11-06T20:16:08.152Z,11.50
2022-11-06T20:18:37.832Z,11.70
2022-11-06T20:21:09.648Z,11.68
2022-11-06T20:26:10.229Z,10.95
2022-11-06T20:28:39.878Z,12.20
2022-11-06T20:31:11.492Z,10.88
2022-11-06T20:33:40.995Z,11.65
2022-11-06T20:36:12.352Z,11.75
2022-11-06T20:38:44.940Z,12.15
2022-11-06T20:41:15.858Z,13.27
2022-11-06T20:43:46.545Z,13.05
2022-11-06T20:46:18.737Z,13.23
2022-11-06T20:48:48.926Z,11.55
2022-11-06T20:51:20.799Z,11.95
2022-11-06T20:53:52.428Z,12.93
2022-11-06T20:56:25.587Z,12.85
2022-11-06T20:58:55.759Z,11.48
2022-11-06T21:01:27.403Z,12.57
2022-11-06T21:03:57.983Z,12.57
2022-11-06T21:06:30.128Z,12.20
2022-11-06T21:09:00.898Z,13.05
2022-11-06T21:11:30.522Z,11.93
2022-11-06T21:14:00.235Z,13.48
2022-11-06T21:16:32.712Z,12.30
2022-11-06T21:19:02.739Z,12.75
2022-11-06T21:21:34.675Z,12.48
2022-11-06T21:24:06.218Z,13.20
2022-11-06T21:26:38.876Z,12.68
2022-11-06T21:29:10.885Z,13.43
2022-11-06T21:31:47.488Z,13.65
2022-11-06T21:34:19.218Z,15.10
2022-11-06T21:36:49.871Z,14.05
2022-11-06T21:39:21.926Z,15.10
2022-11-06T21:41:52.152Z,12.75
2022-11-06T21:44:21.698Z,13.13
2022-11-06T21:46:51.802Z,13.00
2022-11-06T21:49:21.269Z,13.23
2022-11-06T21:51:51.251Z,13.23
2022-11-06T21:54:39.308Z,12.95
2022-11-06T21:57:08.959Z,12.63
2022-11-06T21:59:41.631Z,13.40
2022-11-06T22:02:11.982Z,13.57
2022-11-06T22:04:41.572Z,13.38
2022-11-06T22:07:11.706Z,13.52
2022-11-06T22:09:42.457Z,13.73
2022-11-06T22:12:12.451Z,12.75
2022-11-06T22:14:44.859Z,14.10
2022-11-06T22:17:14.452Z,13.50
2022-11-06T22:19:43.768Z,14.50
2022-11-06T22:22:13.932Z,12.33
2022-11-06T22:24:44.728Z,13.10
2022-11-06T22:27:14.739Z,13.48
2022-11-06T22:29:44.234Z,13.15
2022-11-06T22:32:14.143Z,14.05
2022-11-06T22:34:43.552Z,12.73
2022-11-06T22:37:13.499Z,11.63
2022-11-06T22:39:44.242Z,12.40
2022-11-06T22:42:13.849Z,11.27
2022-11-06T22:44:43.813Z,11.95
2022-11-06T22:47:14.116Z,11.50
2022-11-06T22:49:43.443Z,11.38
2022-11-06T22:52:13.443Z,13.30
2022-11-06T22:54:44.793Z,10.98
2022-11-06T22:57:14.712Z,10.60
2022-11-06T22:59:43.983Z,10.98
2022-11-06T23:02:14.190Z,11.32
2022-11-06T23:04:43.633Z,10.88
2022-11-06T23:07:13.487Z,11.25
2022-11-06T23:09:44.311Z,10.98
2022-11-06T23:12:16.093Z,10.88
2022-11-06T23:14:45.393Z,11.10
2022-11-06T23:17:15.516Z,8.65
2022-11-06T23:19:45.340Z,10.32
2022-11-06T23:22:32.836Z,10.18
2022-11-06T23:25:03.702Z,11.18
2022-11-06T23:27:33.685Z,11.05
2022-11-06T23:30:03.057Z,9.77
2022-11-06T23:32:35.174Z,11.13
2022-11-06T23:35:05.021Z,11.00
2022-11-06T23:37:35.121Z,11.93
2022-11-06T23:40:07.030Z,9.50
2022-11-06T23:42:37.266Z,10.60
2022-11-06T23:45:25.055Z,10.27
2022-11-06T23:47:55.182Z,10.32
2022-11-06T23:50:24.715Z,10.80
2022-11-06T23:52:54.843Z,11.65
2022-11-06T23:55:25.838Z,9.55
2022-11-06T23:57:56.448Z,10.68
